Time;durP1;ratioP1;P1;durP2;ratioP2;P2;SDS_P1;SDS_P2;PMS_P1;PMS_P2;Temp;Humidity;BMP_temperature;BMP_pressure;BME280_temperature;BME280_humidity;BME280_pressure;Samples;Min_cycle;Max_cycle;Signal;HPM_P1;HPM_P2
2022/02/22 00:00:35;;;;;;;20.57;4.20;;;;;5.20;101370.00;;;;9988230;29;20198;-93
2022/02/22 00:07:02;;;;;;;29.57;6.70;;;;;5.10;101384.00;;;;9987698;29;20246;-90
2022/02/22 00:13:11;;;;;;;18.23;3.90;;;;;5.00;101396.00;;;;9984264;29;20239;-92
2022/02/22 00:19:16;;;;;;;26.13;5.03;;;;;4.90;101403.00;;;;9986466;29;20301;-92
2022/02/22 00:25:41;;;;;;;29.70;4.57;;;;;4.70;101400.00;;;;9971356;29;20221;-92
2022/02/22 00:31:54;;;;;;;22.20;4.30;;;;;4.60;101421.00;;;;9968592;29;20206;-93
2022/02/22 00:38:18;;;;;;;26.90;4.80;;;;;4.40;101422.00;;;;9987292;29;20309;-90
2022/02/22 00:45:01;;;;;;;16.73;4.57;;;;;4.30;101430.00;;;;9974281;29;20209;-93
2022/02/22 00:51:17;;;;;;;23.37;4.73;;;;;4.10;101426.00;;;;9964462;29;20190;-92
2022/02/22 00:57:30;;;;;;;20.33;3.80;;;;;4.00;101424.00;;;;9963977;29;20222;-93
2022/02/22 01:03:59;;;;;;;22.93;4.00;;;;;3.90;101429.00;;;;10006379;29;20532;-94
2022/02/22 01:10:43;;;;;;;18.30;4.43;;;;;3.90;101434.00;;;;9920685;29;20207;-93
2022/02/22 01:17:07;;;;;;;35.07;4.73;;;;;3.80;101435.00;;;;9985176;29;20210;-92
2022/02/22 01:24:00;;;;;;;20.17;4.80;;;;;3.80;101446.00;;;;9986957;29;20282;-93
2022/02/22 01:30:50;;;;;;;25.33;4.73;;;;;3.90;101446.00;;;;9943376;29;20209;-92
2022/02/22 01:37:10;;;;;;;19.77;4.80;;;;;3.90;101450.00;;;;9982754;29;20783;-92
2022/02/22 01:43:54;;;;;;;25.13;4.00;;;;;3.80;101464.00;;;;9985755;29;20198;-91
2022/02/22 01:50:28;;;;;;;20.47;4.50;;;;;3.60;101468.00;;;;9978858;29;20206;-92
2022/02/22 01:57:16;;;;;;;20.93;4.87;;;;;3.40;101465.00;;;;9989855;29;20218;-92
2022/02/22 02:03:26;;;;;;;22.27;4.40;;;;;3.20;101472.00;;;;9993148;29;20674;-92
2022/02/22 02:09:25;;;;;;;27.63;4.33;;;;;3.20;101473.00;;;;10001771;29;20202;-92
2022/02/22 02:15:41;;;;;;;17.27;3.57;;;;;3.30;101478.00;;;;9990882;29;20218;-93
2022/02/22 02:21:53;;;;;;;21.63;4.60;;;;;3.40;101461.00;;;;9990143;29;20570;-92
2022/02/22 02:27:47;;;;;;;26.27;4.77;;;;;3.50;101468.00;;;;9991295;29;20528;-92
2022/02/22 02:34:17;;;;;;;26.07;5.17;;;;;3.50;101470.00;;;;9992093;29;20262;-92
2022/02/22 02:40:13;;;;;;;14.23;3.77;;;;;3.40;101479.00;;;;9990718;29;20190;-92
2022/02/22 02:46:34;;;;;;;16.07;3.50;;;;;3.30;101487.00;;;;9990953;29;20666;-91
2022/02/22 02:52:36;;;;;;;21.43;3.70;;;;;3.20;101485.00;;;;9989058;29;20199;-92
2022/02/22 02:58:41;;;;;;;17.80;4.47;;;;;3.30;101487.00;;;;9997314;29;20226;-92
2022/02/22 03:04:58;;;;;;;29.97;4.30;;;;;3.30;101492.00;;;;9971033;29;20210;-92
2022/02/22 03:10:48;;;;;;;17.07;3.47;;;;;3.30;101504.00;;;;9998426;29;20974;-92
2022/02/22 03:16:41;;;;;;;23.20;3.97;;;;;3.30;101501.00;;;;9988983;29;20214;-92
2022/02/22 03:22:36;;;;;;;16.33;3.27;;;;;3.20;101498.00;;;;9986417;29;20223;-92
2022/02/22 03:29:16;;;;;;;20.77;3.73;;;;;3.20;101487.00;;;;9988283;29;20217;-91
2022/02/22 03:35:27;;;;;;;23.37;5.07;;;;;3.10;101489.00;;;;9983683;29;20202;-92
2022/02/22 03:41:22;;;;;;;21.40;5.37;;;;;3.10;101494.00;;;;9969530;29;20199;-91
2022/02/22 03:47:29;;;;;;;12.60;3.17;;;;;3.00;101485.00;;;;9987850;29;20190;-92
2022/02/22 03:53:43;;;;;;;18.63;4.23;;;;;3.00;101475.00;;;;9986334;29;20198;-92
2022/02/22 04:00:02;;;;;;;23.83;4.43;;;;;3.00;101467.00;;;;9949596;29;20230;-92
2022/02/22 04:05:49;;;;;;;21.17;4.50;;;;;3.00;101462.00;;;;9986925;29;20566;-92
2022/02/22 04:11:56;;;;;;;15.87;4.07;;;;;3.00;101476.00;;;;9987024;29;20703;-92
2022/02/22 04:18:01;;;;;;;16.47;4.03;;;;;3.00;101485.00;;;;9956442;29;20226;-92
2022/02/22 04:24:27;;;;;;;16.93;4.20;;;;;3.00;101484.00;;;;9989529;29;20221;-92
2022/02/22 04:30:39;;;;;;;29.73;4.57;;;;;3.10;101497.00;;;;9987537;29;20296;-92
2022/02/22 04:37:15;;;;;;;;;;;;;;;;;;;;;
2022/02/22 04:43:14;;;;;;;19.67;4.67;;;;;3.10;101507.00;;;;9986802;29;20237;-91
2022/02/22 04:49:14;;;;;;;21.07;3.97;;;;;3.10;101509.00;;;;9986241;29;20198;-92
2022/02/22 04:55:04;;;;;;;13.90;3.70;;;;;3.10;101507.00;;;;9986279;29;20206;-92
2022/02/22 05:01:03;;;;;;;15.23;3.70;;;;;3.00;101518.00;;;;9986949;29;20255;-92
2022/02/22 05:06:39;;;;;;;16.60;4.40;;;;;3.00;101524.00;;;;9985627;29;20537;-92
2022/02/22 05:12:40;;;;;;;13.20;3.40;;;;;3.10;101525.00;;;;9999375;29;20202;-93
2022/02/22 05:18:50;;;;;;;15.90;4.47;;;;;3.20;101529.00;;;;9967057;29;20310;-92
2022/02/22 05:24:59;;;;;;;15.73;4.70;;;;;3.30;101532.00;;;;9977471;29;20218;-92
2022/02/22 05:31:05;;;;;;;16.10;4.83;;;;;3.40;101537.00;;;;9987128;29;20202;-92
2022/02/22 05:37:33;;;;;;;20.97;5.87;;;;;3.40;101537.00;;;;9981470;29;20226;-91
2022/02/22 05:43:50;;;;;;;21.63;6.13;;;;;3.40;101533.00;;;;9979062;29;20255;-91
2022/02/22 05:50:31;;;;;;;22.30;5.23;;;;;3.30;101524.00;;;;9985456;29;20201;-91
2022/02/22 05:56:58;;;;;;;27.07;6.40;;;;;3.30;101519.00;;;;9990476;29;20219;-91
2022/02/22 06:02:43;;;;;;;30.07;7.90;;;;;3.30;101529.00;;;;9983657;29;20198;-91
2022/02/22 06:08:46;;;;;;;27.73;6.47;;;;;3.30;101530.00;;;;9984961;29;20547;-91
2022/02/22 06:14:49;;;;;;;;;;;;;;;;;;;;;
2022/02/22 06:20:39;;;;;;;33.10;6.57;;;;;3.30;101531.00;;;;9984341;29;20202;-90
2022/02/22 06:26:30;;;;;;;30.57;8.10;;;;;3.40;101537.00;;;;9991185;29;20232;-91
2022/02/22 06:32:33;;;;;;;40.80;9.07;;;;;3.60;101543.00;;;;9991543;29;20214;-91
2022/02/22 06:38:40;;;;;;;27.00;6.20;;;;;3.80;101521.00;;;;9979354;29;20222;-92
2022/02/22 06:45:10;;;;;;;48.73;7.43;;;;;4.10;101514.00;;;;9979108;29;20206;-91
2022/02/22 06:51:08;;;;;;;32.47;7.00;;;;;4.30;101513.00;;;;9973816;29;20202;-91
2022/02/22 06:57:13;;;;;;;39.90;8.20;;;;;4.50;101499.00;;;;9981538;29;20302;-91
2022/02/22 07:03:31;;;;;;;26.87;6.43;;;;;4.70;101500.00;;;;9986622;29;20667;-91
2022/02/22 07:09:11;;;;;;;41.27;7.07;;;;;4.90;101493.00;;;;9989319;29;20865;-91
2022/02/22 07:14:53;;;;;;;34.40;7.47;;;;;5.00;101483.00;;;;9986663;29;20194;-91
2022/02/22 07:20:46;;;;;;;35.63;6.27;;;;;5.10;101485.00;;;;9989437;29;20187;-91
2022/02/22 07:26:58;;;;;;;31.03;7.20;;;;;5.30;101485.00;;;;9972735;29;20205;-91
2022/02/22 07:32:36;;;;;;;44.57;7.13;;;;;5.40;101472.00;;;;9999641;29;20294;-91
2022/02/22 07:39:22;;;;;;;31.17;5.70;;;;;5.70;101485.00;;;;9954653;29;20222;-93
2022/02/22 07:45:53;;;;;;;33.57;6.50;;;;;6.10;101480.00;;;;9976915;29;20218;-92
2022/02/22 07:52:35;;;;;;;29.00;6.47;;;;;6.60;101488.00;;;;9974786;29;20202;-92
2022/02/22 07:59:21;;;;;;;23.97;5.80;;;;;6.90;101481.00;;;;9990395;29;20215;-92
2022/02/22 08:06:06;;;;;;;32.60;5.67;;;;;6.90;101483.00;;;;9977034;29;20198;-92
2022/02/22 08:12:05;;;;;;;33.97;7.17;;;;;6.90;101464.00;;;;9930345;29;20207;-93
2022/02/22 08:18:25;;;;;;;32.20;5.53;;;;;7.20;101459.00;;;;9987184;29;20575;-92
2022/02/22 08:24:00;;;;;;;28.90;6.13;;;;;7.50;101459.00;;;;9988158;29;20230;-92
2022/02/22 08:30:06;;;;;;;32.43;6.30;;;;;7.30;101470.00;;;;9985655;29;20289;-91
2022/02/22 08:36:43;;;;;;;28.93;5.37;;;;;7.20;101462.00;;;;9985985;29;20827;-93
2022/02/22 08:42:42;;;;;;;29.60;6.40;;;;;7.40;101464.00;;;;9988309;29;20263;-93
2022/02/22 08:48:36;;;;;;;30.63;6.37;;;;;7.70;101443.00;;;;9947884;29;20205;-91
2022/02/22 08:54:35;;;;;;;37.10;6.90;;;;;8.20;101444.00;;;;9969778;29;20217;-91
2022/02/22 09:00:54;;;;;;;27.57;6.93;;;;;8.70;101443.00;;;;9993100;29;20230;-91
2022/02/22 09:06:25;;;;;;;43.93;8.17;;;;;9.40;101439.00;;;;9973210;29;20197;-92
2022/02/22 09:19:08;;;;;;;44.37;7.93;;;;;9.60;101422.00;;;;9974196;29;20316;-92
2022/02/22 09:25:52;;;;;;;40.37;8.73;;;;;9.50;101401.00;;;;9969340;29;20202;-91
2022/02/22 09:31:43;;;;;;;28.80;6.73;;;;;9.60;101395.00;;;;9998425;29;20229;-91
2022/02/22 09:37:45;;;;;;;31.60;7.20;;;;;9.90;101374.00;;;;9978479;29;20222;-92
2022/02/22 09:43:54;;;;;;;39.10;7.30;;;;;10.10;101358.00;;;;9986496;29;20206;-92
2022/02/22 09:50:13;;;;;;;39.43;8.00;;;;;10.80;101381.00;;;;9993355;29;20202;-92
2022/02/22 09:56:03;;;;;;;29.83;8.00;;;;;11.40;101394.00;;;;10015182;29;20698;-93
2022/02/22 10:02:26;;;;;;;38.87;8.00;;;;;11.40;101389.00;;;;9977747;29;20667;-92
2022/02/22 10:08:38;;;;;;;39.73;8.27;;;;;11.40;101399.00;;;;9969586;29;20198;-91
2022/02/22 10:14:45;;;;;;;39.10;8.57;;;;;10.40;101397.00;;;;9990746;29;20215;-92
2022/02/22 10:20:51;;;;;;;36.50;7.77;;;;;10.10;101368.00;;;;9991864;29;20229;-92
2022/02/22 10:27:05;;;;;;;37.10;8.07;;;;;10.00;101372.00;;;;9994396;29;20258;-91
2022/02/22 10:33:40;;;;;;;;;;;;;;;;;;;;;
2022/02/22 10:39:44;;;;;;;31.10;7.47;;;;;9.30;101336.00;;;;9995540;29;20233;-91
2022/02/22 10:45:34;;;;;;;29.20;7.87;;;;;9.00;101319.00;;;;9988279;29;20198;-91
2022/02/22 10:51:26;;;;;;;36.80;8.73;;;;;8.80;101317.00;;;;9976292;29;20206;-92
2022/02/22 10:57:49;;;;;;;34.53;8.27;;;;;8.90;101323.00;;;;9980533;29;20210;-92
2022/02/22 11:03:52;;;;;;;30.73;7.20;;;;;9.10;101320.00;;;;9977516;29;20206;-93
2022/02/22 11:09:52;;;;;;;32.13;7.70;;;;;9.90;101306.00;;;;9997025;29;20950;-92
2022/02/22 11:16:32;;;;;;;29.97;7.33;;;;;10.10;101304.00;;;;9868703;30;20714;-91
2022/02/22 11:23:15;;;;;;;23.63;6.87;;;;;9.60;101310.00;;;;9812731;30;20795;-91
2022/02/22 11:28:44;;;;;;;23.20;6.83;;;;;9.90;101300.00;;;;9871027;30;20203;-91
2022/02/22 11:34:18;;;;;;;26.97;5.80;;;;;9.50;101308.00;;;;9866374;30;20253;-92
2022/02/22 11:39:55;;;;;;;20.30;5.80;;;;;9.20;101319.00;;;;9875576;30;20224;-92
2022/02/22 11:45:48;;;;;;;23.50;6.37;;;;;9.40;101305.00;;;;9879653;29;20254;-91
2022/02/22 11:51:22;;;;;;;21.90;6.47;;;;;9.40;101274.00;;;;9951200;29;20206;-91
2022/02/22 11:56:43;;;;;;;21.80;7.57;;;;;9.50;101291.00;;;;9983780;29;20217;-92
2022/02/22 12:02:44;;;;;;;;;;;;;;;;;;;;;
2022/02/22 12:08:51;;;;;;;23.43;7.07;;;;;10.30;101288.00;;;;9986335;29;20672;-91
2022/02/22 12:14:40;;;;;;;17.50;7.03;;;;;10.20;101282.00;;;;9997753;29;20215;-91
2022/02/22 12:20:15;;;;;;;20.13;7.57;;;;;10.20;101265.00;;;;9962706;29;20278;-91
2022/02/22 12:25:47;;;;;;;19.63;7.50;;;;;10.30;101235.00;;;;9959427;29;21451;-91
2022/02/22 12:31:28;;;;;;;22.43;7.80;;;;;10.70;101227.00;;;;9969208;29;20195;-92
2022/02/22 12:37:02;;;;;;;21.10;7.27;;;;;11.40;101225.00;;;;9982984;29;20698;-90
2022/02/22 12:42:50;;;;;;;14.47;6.23;;;;;11.90;101233.00;;;;9993001;29;20206;-91
2022/02/22 12:48:47;;;;;;;21.97;6.60;;;;;12.10;101237.00;;;;9979831;29;20278;-92
2022/02/22 12:54:49;;;;;;;21.03;5.97;;;;;11.60;101226.00;;;;9983493;29;20267;-93
2022/02/22 13:01:10;;;;;;;12.83;5.63;;;;;11.80;101216.00;;;;9994022;29;20230;-92
2022/02/22 13:07:53;;;;;;;19.40;5.63;;;;;11.60;101195.00;;;;9985996;29;20595;-93
2022/02/22 13:14:08;;;;;;;24.47;7.53;;;;;11.60;101178.00;;;;9988699;29;20198;-91
2022/02/22 13:20:40;;;;;;;15.10;5.03;;;;;11.50;101190.00;;;;9994187;29;20225;-92
2022/02/22 13:26:59;;;;;;;16.37;4.53;;;;;11.50;101167.00;;;;9933321;29;20236;-93
2022/02/22 13:33:21;;;;;;;14.63;4.87;;;;;11.40;101171.00;;;;9935779;29;20756;-93
2022/02/22 13:39:21;;;;;;;14.40;4.70;;;;;11.20;101150.00;;;;9971072;29;20238;-92
2022/02/22 13:45:35;;;;;;;23.57;4.93;;;;;11.60;101136.00;;;;9946374;29;20275;-92
2022/02/22 13:51:58;;;;;;;16.40;4.63;;;;;12.10;101126.00;;;;9984351;29;20262;-92
2022/02/22 13:58:28;;;;;;;13.33;4.63;;;;;12.60;101141.00;;;;10026189;29;20244;-92
2022/02/22 14:04:47;;;;;;;14.80;4.47;;;;;12.80;101145.00;;;;10022314;29;20242;-93
2022/02/22 14:11:26;;;;;;;15.40;4.90;;;;;12.50;101128.00;;;;10020368;29;20194;-93
2022/02/22 14:17:49;;;;;;;16.40;5.20;;;;;12.20;101121.00;;;;10009128;29;20221;-92
2022/02/22 14:24:02;;;;;;;16.43;5.60;;;;;12.20;101095.00;;;;10023593;29;20798;-92
2022/02/22 14:30:08;;;;;;;18.20;5.30;;;;;12.10;101094.00;;;;10015580;29;20178;-92
2022/02/22 14:35:58;;;;;;;13.03;5.10;;;;;12.00;101094.00;;;;9992637;29;20198;-93
2022/02/22 14:42:04;;;;;;;12.30;5.10;;;;;12.20;101092.00;;;;9997941;29;20202;-94
2022/02/22 14:48:22;;;;;;;14.93;4.77;;;;;12.30;101079.00;;;;9995736;29;20198;-93
2022/02/22 14:54:32;;;;;;;15.50;4.93;;;;;12.30;101100.00;;;;9987862;29;20273;-92
2022/02/22 15:00:33;;;;;;;22.27;6.13;;;;;12.50;101062.00;;;;9972847;29;20241;-94
2022/02/22 15:12:56;;;;;;;18.50;5.00;;;;;13.10;101102.00;;;;9943437;29;20206;-91
2022/02/22 15:18:59;;;;;;;15.03;5.00;;;;;12.30;101080.00;;;;9991467;29;20242;-92
2022/02/22 15:25:07;;;;;;;16.10;5.10;;;;;11.80;101082.00;;;;9994339;29;20226;-93
2022/02/22 15:31:47;;;;;;;15.70;5.47;;;;;11.70;101043.00;;;;9977731;29;20205;-92
2022/02/22 15:38:02;;;;;;;19.47;5.30;;;;;11.70;101042.00;;;;10003903;29;20263;-94
2022/02/22 15:44:36;;;;;;;15.07;6.67;;;;;11.70;101026.00;;;;9987914;29;20339;-92
2022/02/22 15:50:42;;;;;;;18.17;6.17;;;;;11.40;101029.00;;;;10009731;29;20515;-93
2022/02/22 15:57:07;;;;;;;17.40;5.50;;;;;11.50;101011.00;;;;9982949;29;20570;-93
2022/02/22 16:04:16;;;;;;;16.03;5.60;;;;;11.50;101019.00;;;;9991132;29;20210;-93
2022/02/22 16:10:25;;;;;;;16.30;5.67;;;;;11.40;101013.00;;;;9989481;29;20669;-93
2022/02/22 16:17:03;;;;;;;16.87;4.63;;;;;11.40;101006.00;;;;9980975;29;20206;-92
2022/02/22 16:23:27;;;;;;;17.87;5.40;;;;;11.20;101009.00;;;;9995939;29;20333;-92
2022/02/22 16:30:17;;;;;;;13.80;4.77;;;;;11.00;101019.00;;;;10005288;29;20246;-92
2022/02/22 16:37:00;;;;;;;13.57;4.40;;;;;10.90;101027.00;;;;9987577;29;20275;-92
2022/02/22 16:43:57;;;;;;;17.23;5.10;;;;;10.70;101018.00;;;;9984984;29;20294;-92
2022/02/22 16:50:41;;;;;;;24.80;4.50;;;;;10.70;101035.00;;;;9969304;29;20193;-93
2022/02/22 16:57:00;;;;;;;16.97;4.83;;;;;10.80;101055.00;;;;9981941;29;20210;-92
2022/02/22 17:03:27;;;;;;;17.87;4.47;;;;;10.80;101063.00;;;;9995755;29;20209;-92
2022/02/22 17:10:04;;;;;;;21.27;5.50;;;;;10.80;101069.00;;;;9988204;29;20202;-93
2022/02/22 17:16:39;;;;;;;15.80;4.50;;;;;10.80;101082.00;;;;9989794;29;20203;-92
2022/02/22 17:22:59;;;;;;;25.60;4.77;;;;;10.90;101094.00;;;;9989666;29;20221;-92
2022/02/22 17:29:36;;;;;;;20.07;4.23;;;;;10.90;101105.00;;;;9989627;29;20194;-92
2022/02/22 17:36:01;;;;;;;23.47;4.67;;;;;10.80;101118.00;;;;9987190;29;20239;-90
2022/02/22 17:42:56;;;;;;;30.03;4.87;;;;;10.60;101120.00;;;;9983901;29;20190;-92
2022/02/22 17:49:35;;;;;;;22.27;4.87;;;;;10.30;101132.00;;;;9940071;29;20205;-92
2022/02/22 18:04:26;;;;;;;29.47;6.23;;;;;10.10;101155.00;;;;9985660;29;20242;-91
2022/02/22 18:09:28;;;;;;;30.63;5.90;;;;;10.10;101159.00;;;;9979027;29;20274;-79
2022/02/22 18:14:31;;;;;;;26.83;5.67;;;;;10.00;101170.00;;;;9967433;29;20233;-78
2022/02/22 18:19:33;;;;;;;28.33;6.47;;;;;9.90;101179.00;;;;9980236;29;20229;-78
2022/02/22 18:24:36;;;;;;;23.73;6.63;;;;;9.90;101188.00;;;;9974314;29;20220;-78
2022/02/22 18:29:39;;;;;;;37.70;6.90;;;;;10.00;101190.00;;;;10038392;29;20194;-79
2022/02/22 18:34:46;;;;;;;31.70;7.03;;;;;10.00;101213.00;;;;10015905;29;20198;-77
2022/02/22 18:39:49;;;;;;;17.23;4.90;;;;;10.00;101227.00;;;;9990857;29;20677;-78
2022/02/22 18:44:55;;;;;;;33.73;7.00;;;;;9.90;101256.00;;;;10001785;29;20201;-78
2022/02/22 18:49:58;;;;;;;18.40;4.67;;;;;9.70;101264.00;;;;10006078;29;20202;-79
2022/02/22 18:55:00;;;;;;;12.57;3.53;;;;;9.40;101287.00;;;;10008867;29;20224;-79
2022/02/22 19:00:06;;;;;;;15.23;3.40;;;;;9.30;101314.00;;;;10075244;29;20252;-78
2022/02/22 19:05:08;;;;;;;15.67;3.53;;;;;9.20;101315.00;;;;10025166;29;20212;-78
2022/02/22 19:10:11;;;;;;;16.00;3.40;;;;;9.40;101342.00;;;;10012500;29;20190;-78
2022/02/22 19:15:13;;;;;;;20.97;4.83;;;;;9.40;101374.00;;;;10031730;29;20233;-79
2022/02/22 19:20:16;;;;;;;16.43;4.77;;;;;9.40;101384.00;;;;10039531;29;20217;-78
2022/02/22 19:25:18;;;;;;;21.53;4.10;;;;;9.40;101406.00;;;;10043007;29;20668;-78
2022/02/22 19:30:21;;;;;;;20.70;4.17;;;;;9.40;101423.00;;;;10031464;29;20197;-78
2022/02/22 19:35:23;;;;;;;19.23;4.33;;;;;9.30;101437.00;;;;10027930;29;20193;-78
2022/02/22 19:40:26;;;;;;;16.67;4.50;;;;;9.20;101446.00;;;;10022240;29;20240;-79
2022/02/22 19:45:28;;;;;;;13.60;4.43;;;;;9.20;101440.00;;;;10044018;29;20244;-78
2022/02/22 19:50:32;;;;;;;16.37;4.50;;;;;9.20;101443.00;;;;10046132;29;20201;-78
2022/02/22 19:55:41;;;;;;;18.67;4.90;;;;;9.20;101448.00;;;;10030650;29;20223;-78
2022/02/22 20:00:45;;;;;;;21.37;4.87;;;;;9.10;101446.00;;;;10059025;29;20219;-78
2022/02/22 20:05:51;;;;;;;22.37;4.63;;;;;9.10;101451.00;;;;10051705;29;20209;-78
2022/02/22 20:10:53;;;;;;;23.23;4.43;;;;;9.00;101464.00;;;;10064460;29;20265;-78
2022/02/22 20:15:55;;;;;;;15.37;4.23;;;;;8.90;101461.00;;;;10034838;29;20203;-79
2022/02/22 20:20:57;;;;;;;23.50;5.03;;;;;8.60;101468.00;;;;10054536;29;20205;-78
2022/02/22 20:25:59;;;;;;;14.33;4.80;;;;;8.50;101470.00;;;;10035383;29;20291;-78
2022/02/22 20:31:03;;;;;;;19.03;4.27;;;;;8.50;101484.00;;;;10047910;29;20203;-77
2022/02/22 20:36:05;;;;;;;14.23;3.40;;;;;8.50;101492.00;;;;10032850;29;20196;-78
2022/02/22 20:41:13;;;;;;;22.23;4.03;;;;;8.30;101497.00;;;;10045267;29;20220;-78
2022/02/22 20:46:15;;;;;;;18.10;4.33;;;;;8.10;101511.00;;;;10044690;29;20201;-78
2022/02/22 20:51:17;;;;;;;16.17;4.30;;;;;8.00;101520.00;;;;10061272;29;20221;-78
2022/02/22 20:56:19;;;;;;;22.30;4.50;;;;;7.90;101535.00;;;;10018967;29;20208;-78
2022/02/22 21:01:24;;;;;;;16.37;3.97;;;;;7.70;101536.00;;;;10043651;29;20225;-78
2022/02/22 21:06:26;;;;;;;20.23;4.00;;;;;7.70;101552.00;;;;10050996;29;20220;-78
2022/02/22 21:11:28;;;;;;;15.90;4.27;;;;;7.70;101566.00;;;;10057015;29;20216;-77
2022/02/22 21:16:30;;;;;;;16.00;4.10;;;;;7.60;101575.00;;;;10058555;29;20197;-78
2022/02/22 21:21:32;;;;;;;17.07;4.03;;;;;7.60;101582.00;;;;10047478;29;20234;-77
2022/02/22 21:26:39;;;;;;;18.37;4.37;;;;;7.50;101590.00;;;;10039138;29;20209;-77
2022/02/22 21:31:41;;;;;;;13.73;3.97;;;;;7.40;101599.00;;;;10052983;29;20193;-76
2022/02/22 21:36:43;;;;;;;12.87;3.50;;;;;7.40;101603.00;;;;10056695;29;20208;-76
2022/02/22 21:41:45;;;;;;;13.77;3.70;;;;;7.30;101620.00;;;;10035753;29;20218;-77
2022/02/22 21:46:48;;;;;;;17.53;3.97;;;;;7.20;101632.00;;;;10051972;29;20286;-76
2022/02/22 21:51:53;;;;;;;17.07;3.60;;;;;7.00;101638.00;;;;10047900;29;20699;-76
2022/02/22 21:56:59;;;;;;;14.27;4.43;;;;;6.90;101656.00;;;;10063711;29;20207;-76
2022/02/22 22:02:03;;;;;;;15.07;4.00;;;;;6.90;101668.00;;;;10079196;29;20197;-77
2022/02/22 22:07:05;;;;;;;17.90;4.00;;;;;6.90;101672.00;;;;10055387;29;20242;-77
2022/02/22 22:12:07;;;;;;;17.20;4.00;;;;;6.90;101688.00;;;;10060747;29;20205;-76
2022/02/22 22:17:11;;;;;;;15.13;4.80;;;;;7.00;101705.00;;;;10073649;29;20564;-76
2022/02/22 22:22:12;;;;;;;14.57;4.37;;;;;7.10;101716.00;;;;10059888;29;20246;-76
2022/02/22 22:27:14;;;;;;;12.00;3.90;;;;;7.10;101733.00;;;;10046891;29;20193;-76
2022/02/22 22:32:16;;;;;;;13.73;3.70;;;;;7.10;101740.00;;;;10043995;29;20201;-77
2022/02/22 22:37:18;;;;;;;12.87;3.33;;;;;7.00;101756.00;;;;10062005;29;20209;-76
2022/02/22 22:42:21;;;;;;;11.27;3.50;;;;;7.00;101768.00;;;;10055830;29;20197;-76
2022/02/22 22:47:22;;;;;;;9.70;3.50;;;;;6.80;101768.00;;;;10043716;29;20661;-76
2022/02/22 22:52:25;;;;;;;10.07;3.00;;;;;6.80;101780.00;;;;10060626;29;20276;-76
2022/02/22 22:57:27;;;;;;;9.57;2.97;;;;;7.00;101802.00;;;;10041762;29;20261;-76
2022/02/22 23:02:29;;;;;;;5.33;2.90;;;;;7.00;101813.00;;;;10058161;29;20212;-76
2022/02/22 23:18:12;;;;;;;10.70;3.17;;;;;6.60;101829.00;;;;10045392;29;20220;-76
2022/02/22 23:23:14;;;;;;;10.23;3.10;;;;;6.30;101828.00;;;;10038960;29;20229;-76
2022/02/22 23:28:16;;;;;;;9.40;3.70;;;;;6.10;101830.00;;;;10026959;29;20292;-76
2022/02/22 23:33:18;;;;;;;11.43;3.27;;;;;5.90;101833.00;;;;10057649;29;20200;-76
2022/02/22 23:38:20;;;;;;;17.67;3.80;;;;;5.70;101832.00;;;;10094504;29;20254;-76
2022/02/22 23:43:23;;;;;;;12.97;4.67;;;;;5.60;101845.00;;;;10092805;29;20206;-76
2022/02/22 23:48:25;;;;;;;15.27;4.23;;;;;5.50;101842.00;;;;10075502;29;20222;-77
2022/02/22 23:53:27;;;;;;;10.37;3.27;;;;;5.40;101844.00;;;;10055345;29;20200;-76
2022/02/22 23:58:28;;;;;;;8.93;3.17;;;;;5.30;101844.00;;;;10058555;29;20217;-76
